sensor_id;sensor_type;location;lat;lon;timestamp;temperature;humidity
21259;DHT22;10787;53.364;-1.480;2023-04-03T00:02:00;4.20;1.00
21259;DHT22;10787;53.364;-1.480;2023-04-03T00:04:44;4.00;1.00
21259;DHT22;10787;53.364;-1.480;2023-04-03T00:07:28;4.00;1.00
21259;DHT22;10787;53.364;-1.480;2023-04-03T00:10:12;3.90;1.00
21259;DHT22;10787;53.364;-1.480;2023-04-03T00:12:57;3.90;1.00
21259;DHT22;10787;53.364;-1.480;2023-04-03T00:15:41;3.80;1.00
21259;DHT22;10787;53.364;-1.480;2023-04-03T00:18:26;3.80;1.00
21259;DHT22;10787;53.364;-1.480;2023-04-03T00:21:12;3.80;1.00
21259;DHT22;10787;53.364;-1.480;2023-04-03T00:23:57;3.70;1.00
21259;DHT22;10787;53.364;-1.480;2023-04-03T00:26:41;3.70;1.00
21259;DHT22;10787;53.364;-1.480;2023-04-03T00:29:25;3.70;1.00
21259;DHT22;10787;53.364;-1.480;2023-04-03T00:32:09;3.70;1.00
21259;DHT22;10787;53.364;-1.480;2023-04-03T00:34:54;3.60;1.00
21259;DHT22;10787;53.364;-1.480;2023-04-03T00:37:38;3.60;1.00
21259;DHT22;10787;53.364;-1.480;2023-04-03T00:40:24;3.50;1.00
21259;DHT22;10787;53.364;-1.480;2023-04-03T00:43:16;3.50;1.00
21259;DHT22;10787;53.364;-1.480;2023-04-03T00:46:00;3.40;1.00
21259;DHT22;10787;53.364;-1.480;2023-04-03T00:48:46;3.40;1.00
21259;DHT22;10787;53.364;-1.480;2023-04-03T00:51:31;3.40;1.00
21259;DHT22;10787;53.364;-1.480;2023-04-03T00:54:15;3.30;1.00
21259;DHT22;10787;53.364;-1.480;2023-04-03T00:56:59;3.30;1.00
21259;DHT22;10787;53.364;-1.480;2023-04-03T00:59:48;3.20;1.00
21259;DHT22;10787;53.364;-1.480;2023-04-03T01:02:34;3.20;1.00
21259;DHT22;10787;53.364;-1.480;2023-04-03T01:05:20;3.10;1.00
21259;DHT22;10787;53.364;-1.480;2023-04-03T01:08:05;3.00;1.00
21259;DHT22;10787;53.364;-1.480;2023-04-03T01:10:50;2.90;1.00
21259;DHT22;10787;53.364;-1.480;2023-04-03T01:13:34;2.80;1.00
21259;DHT22;10787;53.364;-1.480;2023-04-03T01:16:19;2.70;1.00
21259;DHT22;10787;53.364;-1.480;2023-04-03T01:19:05;2.70;1.00
21259;DHT22;10787;53.364;-1.480;2023-04-03T01:21:59;2.60;1.00
21259;DHT22;10787;53.364;-1.480;2023-04-03T01:24:46;2.60;1.00
21259;DHT22;10787;53.364;-1.480;2023-04-03T01:27:31;2.60;1.00
21259;DHT22;10787;53.364;-1.480;2023-04-03T01:30:18;2.60;1.00
21259;DHT22;10787;53.364;-1.480;2023-04-03T01:33:03;2.50;1.00
21259;DHT22;10787;53.364;-1.480;2023-04-03T01:35:47;2.50;1.00
21259;DHT22;10787;53.364;-1.480;2023-04-03T01:38:32;2.50;1.00
21259;DHT22;10787;53.364;-1.480;2023-04-03T01:41:17;2.50;1.00
21259;DHT22;10787;53.364;-1.480;2023-04-03T01:44:02;2.50;1.00
21259;DHT22;10787;53.364;-1.480;2023-04-03T01:46:47;2.50;1.00
21259;DHT22;10787;53.364;-1.480;2023-04-03T01:49:32;2.40;1.00
21259;DHT22;10787;53.364;-1.480;2023-04-03T01:52:42;2.40;1.00
21259;DHT22;10787;53.364;-1.480;2023-04-03T01:55:26;2.30;1.00
21259;DHT22;10787;53.364;-1.480;2023-04-03T01:58:11;2.30;1.00
21259;DHT22;10787;53.364;-1.480;2023-04-03T02:00:55;2.20;1.00
21259;DHT22;10787;53.364;-1.480;2023-04-03T02:03:39;2.10;1.00
21259;DHT22;10787;53.364;-1.480;2023-04-03T02:06:24;2.10;1.00
21259;DHT22;10787;53.364;-1.480;2023-04-03T02:09:09;2.10;1.00
21259;DHT22;10787;53.364;-1.480;2023-04-03T02:11:53;2.20;1.00
21259;DHT22;10787;53.364;-1.480;2023-04-03T02:14:37;2.20;1.00
21259;DHT22;10787;53.364;-1.480;2023-04-03T02:17:22;2.20;1.00
21259;DHT22;10787;53.364;-1.480;2023-04-03T02:20:07;2.20;1.00
21259;DHT22;10787;53.364;-1.480;2023-04-03T02:22:51;2.20;1.00
21259;DHT22;10787;53.364;-1.480;2023-04-03T02:25:36;2.10;1.00
21259;DHT22;10787;53.364;-1.480;2023-04-03T02:28:20;2.00;1.00
21259;DHT22;10787;53.364;-1.480;2023-04-03T02:31:07;2.00;1.00
21259;DHT22;10787;53.364;-1.480;2023-04-03T02:33:52;2.00;1.00
21259;DHT22;10787;53.364;-1.480;2023-04-03T02:36:37;2.00;1.00
21259;DHT22;10787;53.364;-1.480;2023-04-03T02:39:21;1.90;1.00
21259;DHT22;10787;53.364;-1.480;2023-04-03T02:42:06;1.70;1.00
21259;DHT22;10787;53.364;-1.480;2023-04-03T02:44:51;1.70;1.00
21259;DHT22;10787;53.364;-1.480;2023-04-03T02:47:35;1.60;1.00
21259;DHT22;10787;53.364;-1.480;2023-04-03T02:50:19;1.60;1.00
21259;DHT22;10787;53.364;-1.480;2023-04-03T02:53:03;1.60;1.00
21259;DHT22;10787;53.364;-1.480;2023-04-03T02:55:49;1.70;1.00
21259;DHT22;10787;53.364;-1.480;2023-04-03T02:58:33;1.70;1.00
21259;DHT22;10787;53.364;-1.480;2023-04-03T03:01:18;1.60;1.00
21259;DHT22;10787;53.364;-1.480;2023-04-03T03:04:03;1.60;1.00
21259;DHT22;10787;53.364;-1.480;2023-04-03T03:06:47;1.50;1.00
21259;DHT22;10787;53.364;-1.480;2023-04-03T03:09:32;1.50;1.00
21259;DHT22;10787;53.364;-1.480;2023-04-03T03:12:17;1.50;1.00
21259;DHT22;10787;53.364;-1.480;2023-04-03T03:15:06;1.50;1.00
21259;DHT22;10787;53.364;-1.480;2023-04-03T03:17:50;1.50;1.00
21259;DHT22;10787;53.364;-1.480;2023-04-03T03:20:34;1.60;1.00
21259;DHT22;10787;53.364;-1.480;2023-04-03T03:23:20;1.60;1.00
21259;DHT22;10787;53.364;-1.480;2023-04-03T03:26:07;1.60;1.00
21259;DHT22;10787;53.364;-1.480;2023-04-03T03:28:51;1.50;1.00
21259;DHT22;10787;53.364;-1.480;2023-04-03T03:31:36;1.50;1.00
21259;DHT22;10787;53.364;-1.480;2023-04-03T03:34:20;1.50;1.00
21259;DHT22;10787;53.364;-1.480;2023-04-03T03:37:04;1.50;1.00
21259;DHT22;10787;53.364;-1.480;2023-04-03T03:39:49;1.40;1.00
21259;DHT22;10787;53.364;-1.480;2023-04-03T03:42:33;1.40;1.00
21259;DHT22;10787;53.364;-1.480;2023-04-03T03:45:18;1.30;1.00
21259;DHT22;10787;53.364;-1.480;2023-04-03T03:48:02;1.30;1.00
21259;DHT22;10787;53.364;-1.480;2023-04-03T03:50:48;1.30;1.00
21259;DHT22;10787;53.364;-1.480;2023-04-03T03:53:32;1.30;1.00
21259;DHT22;10787;53.364;-1.480;2023-04-03T03:56:17;1.30;1.00
21259;DHT22;10787;53.364;-1.480;2023-04-03T03:59:02;1.30;1.00
21259;DHT22;10787;53.364;-1.480;2023-04-03T04:01:46;1.20;1.00
21259;DHT22;10787;53.364;-1.480;2023-04-03T04:04:30;1.20;1.00
21259;DHT22;10787;53.364;-1.480;2023-04-03T04:07:14;1.20;1.00
21259;DHT22;10787;53.364;-1.480;2023-04-03T04:09:59;1.10;1.00
21259;DHT22;10787;53.364;-1.480;2023-04-03T04:12:43;1.00;1.00
21259;DHT22;10787;53.364;-1.480;2023-04-03T04:15:28;1.00;1.00
21259;DHT22;10787;53.364;-1.480;2023-04-03T04:18:12;1.00;1.00
21259;DHT22;10787;53.364;-1.480;2023-04-03T04:20:57;1.00;1.00
21259;DHT22;10787;53.364;-1.480;2023-04-03T04:23:41;1.00;1.00
21259;DHT22;10787;53.364;-1.480;2023-04-03T04:26:25;1.00;1.00
21259;DHT22;10787;53.364;-1.480;2023-04-03T04:29:10;1.00;1.00
21259;DHT22;10787;53.364;-1.480;2023-04-03T04:31:54;1.00;1.00
21259;DHT22;10787;53.364;-1.480;2023-04-03T04:34:39;1.00;1.00
21259;DHT22;10787;53.364;-1.480;2023-04-03T04:37:23;1.00;1.00
21259;DHT22;10787;53.364;-1.480;2023-04-03T04:40:08;1.00;1.00
21259;DHT22;10787;53.364;-1.480;2023-04-03T04:42:52;0.90;1.00
21259;DHT22;10787;53.364;-1.480;2023-04-03T04:45:36;0.90;1.00
21259;DHT22;10787;53.364;-1.480;2023-04-03T04:48:20;0.80;1.00
21259;DHT22;10787;53.364;-1.480;2023-04-03T04:51:05;0.80;1.00
21259;DHT22;10787;53.364;-1.480;2023-04-03T04:53:49;0.80;1.00
21259;DHT22;10787;53.364;-1.480;2023-04-03T04:56:33;0.80;1.00
21259;DHT22;10787;53.364;-1.480;2023-04-03T04:59:17;0.70;1.00
21259;DHT22;10787;53.364;-1.480;2023-04-03T05:02:01;0.70;1.00
21259;DHT22;10787;53.364;-1.480;2023-04-03T05:04:46;0.70;1.00
21259;DHT22;10787;53.364;-1.480;2023-04-03T05:07:30;0.70;1.00
21259;DHT22;10787;53.364;-1.480;2023-04-03T05:10:15;0.70;1.00
21259;DHT22;10787;53.364;-1.480;2023-04-03T05:12:59;0.70;1.00
21259;DHT22;10787;53.364;-1.480;2023-04-03T05:15:43;0.80;1.00
21259;DHT22;10787;53.364;-1.480;2023-04-03T05:18:28;0.80;1.00
21259;DHT22;10787;53.364;-1.480;2023-04-03T05:21:12;0.80;1.00
21259;DHT22;10787;53.364;-1.480;2023-04-03T05:24:04;0.80;1.00
21259;DHT22;10787;53.364;-1.480;2023-04-03T05:26:51;0.80;1.00
21259;DHT22;10787;53.364;-1.480;2023-04-03T05:29:38;0.70;1.00
21259;DHT22;10787;53.364;-1.480;2023-04-03T05:32:23;0.60;1.00
21259;DHT22;10787;53.364;-1.480;2023-04-03T05:35:16;0.60;1.00
21259;DHT22;10787;53.364;-1.480;2023-04-03T05:38:01;0.60;1.00
21259;DHT22;10787;53.364;-1.480;2023-04-03T05:40:46;0.70;1.00
21259;DHT22;10787;53.364;-1.480;2023-04-03T05:43:30;0.80;1.00
21259;DHT22;10787;53.364;-1.480;2023-04-03T05:46:18;0.90;1.00
21259;DHT22;10787;53.364;-1.480;2023-04-03T05:49:03;0.90;1.00
21259;DHT22;10787;53.364;-1.480;2023-04-03T05:51:47;1.00;1.00
21259;DHT22;10787;53.364;-1.480;2023-04-03T05:54:32;1.00;1.00
21259;DHT22;10787;53.364;-1.480;2023-04-03T05:57:16;1.10;1.00
21259;DHT22;10787;53.364;-1.480;2023-04-03T06:00:02;1.10;1.00
21259;DHT22;10787;53.364;-1.480;2023-04-03T06:02:47;1.10;1.00
21259;DHT22;10787;53.364;-1.480;2023-04-03T06:05:31;1.20;1.00
21259;DHT22;10787;53.364;-1.480;2023-04-03T06:08:15;1.40;1.00
21259;DHT22;10787;53.364;-1.480;2023-04-03T06:11:00;1.60;1.00
21259;DHT22;10787;53.364;-1.480;2023-04-03T06:13:46;2.00;1.00
21259;DHT22;10787;53.364;-1.480;2023-04-03T06:16:30;2.30;1.00
21259;DHT22;10787;53.364;-1.480;2023-04-03T06:19:14;2.50;1.00
21259;DHT22;10787;53.364;-1.480;2023-04-03T06:21:59;2.70;1.00
21259;DHT22;10787;53.364;-1.480;2023-04-03T06:24:43;2.70;1.00
21259;DHT22;10787;53.364;-1.480;2023-04-03T06:27:28;2.70;1.00
21259;DHT22;10787;53.364;-1.480;2023-04-03T06:30:13;2.60;1.00
21259;DHT22;10787;53.364;-1.480;2023-04-03T06:32:57;2.60;1.00
21259;DHT22;10787;53.364;-1.480;2023-04-03T06:35:43;2.60;1.00
21259;DHT22;10787;53.364;-1.480;2023-04-03T06:38:27;2.70;1.00
21259;DHT22;10787;53.364;-1.480;2023-04-03T06:41:11;2.70;1.00
21259;DHT22;10787;53.364;-1.480;2023-04-03T06:43:56;2.70;1.00
21259;DHT22;10787;53.364;-1.480;2023-04-03T06:46:43;2.80;1.00
21259;DHT22;10787;53.364;-1.480;2023-04-03T06:49:29;2.80;1.00
21259;DHT22;10787;53.364;-1.480;2023-04-03T06:52:14;2.90;1.00
21259;DHT22;10787;53.364;-1.480;2023-04-03T06:54:58;2.90;1.00
21259;DHT22;10787;53.364;-1.480;2023-04-03T06:57:43;3.00;1.00
21259;DHT22;10787;53.364;-1.480;2023-04-03T07:00:28;3.00;1.00
21259;DHT22;10787;53.364;-1.480;2023-04-03T07:03:13;3.10;1.00
21259;DHT22;10787;53.364;-1.480;2023-04-03T07:05:57;3.20;1.00
21259;DHT22;10787;53.364;-1.480;2023-04-03T07:08:41;3.30;1.00
21259;DHT22;10787;53.364;-1.480;2023-04-03T07:11:27;3.40;1.00
21259;DHT22;10787;53.364;-1.480;2023-04-03T07:14:11;3.50;1.00
21259;DHT22;10787;53.364;-1.480;2023-04-03T07:16:55;3.60;1.00
21259;DHT22;10787;53.364;-1.480;2023-04-03T07:19:39;3.70;1.00
21259;DHT22;10787;53.364;-1.480;2023-04-03T07:22:24;3.70;1.00
21259;DHT22;10787;53.364;-1.480;2023-04-03T07:25:09;3.70;1.00
21259;DHT22;10787;53.364;-1.480;2023-04-03T07:27:55;3.80;1.00
21259;DHT22;10787;53.364;-1.480;2023-04-03T07:30:51;3.90;1.00
21259;DHT22;10787;53.364;-1.480;2023-04-03T07:33:36;4.10;1.00
21259;DHT22;10787;53.364;-1.480;2023-04-03T07:36:22;4.20;1.00
21259;DHT22;10787;53.364;-1.480;2023-04-03T07:39:06;4.30;1.00
21259;DHT22;10787;53.364;-1.480;2023-04-03T07:41:52;4.40;1.00
21259;DHT22;10787;53.364;-1.480;2023-04-03T07:44:36;4.50;1.00
21259;DHT22;10787;53.364;-1.480;2023-04-03T07:47:20;4.60;1.00
21259;DHT22;10787;53.364;-1.480;2023-04-03T07:50:05;4.70;1.00
21259;DHT22;10787;53.364;-1.480;2023-04-03T07:52:50;4.80;1.00
21259;DHT22;10787;53.364;-1.480;2023-04-03T07:55:36;4.90;1.00
21259;DHT22;10787;53.364;-1.480;2023-04-03T07:58:26;5.10;1.00
21259;DHT22;10787;53.364;-1.480;2023-04-03T08:01:11;5.40;1.00
21259;DHT22;10787;53.364;-1.480;2023-04-03T08:03:55;5.70;1.00
21259;DHT22;10787;53.364;-1.480;2023-04-03T08:06:40;5.90;1.00
21259;DHT22;10787;53.364;-1.480;2023-04-03T08:09:24;6.00;1.00
21259;DHT22;10787;53.364;-1.480;2023-04-03T08:12:08;6.00;1.00
21259;DHT22;10787;53.364;-1.480;2023-04-03T08:14:55;6.00;1.00
21259;DHT22;10787;53.364;-1.480;2023-04-03T08:17:40;6.00;1.00
21259;DHT22;10787;53.364;-1.480;2023-04-03T08:20:24;6.10;1.00
21259;DHT22;10787;53.364;-1.480;2023-04-03T08:23:09;6.10;1.00
21259;DHT22;10787;53.364;-1.480;2023-04-03T08:25:53;6.20;1.00
21259;DHT22;10787;53.364;-1.480;2023-04-03T08:28:38;6.30;1.00
21259;DHT22;10787;53.364;-1.480;2023-04-03T08:31:23;6.30;1.00
21259;DHT22;10787;53.364;-1.480;2023-04-03T08:34:08;6.40;1.00
21259;DHT22;10787;53.364;-1.480;2023-04-03T08:36:53;6.50;1.00
21259;DHT22;10787;53.364;-1.480;2023-04-03T08:39:37;6.60;1.00
21259;DHT22;10787;53.364;-1.480;2023-04-03T08:45:53;6.90;1.00
21259;DHT22;10787;53.364;-1.480;2023-04-03T08:48:41;7.00;1.00
21259;DHT22;10787;53.364;-1.480;2023-04-03T08:51:27;7.30;1.00
21259;DHT22;10787;53.364;-1.480;2023-04-03T08:54:30;7.40;1.00
21259;DHT22;10787;53.364;-1.480;2023-04-03T08:57:18;7.50;1.00
21259;DHT22;10787;53.364;-1.480;2023-04-03T09:02:59;7.80;1.00
21259;DHT22;10787;53.364;-1.480;2023-04-03T09:15:20;8.80;1.00
21259;DHT22;10787;53.364;-1.480;2023-04-03T09:18:39;9.00;1.00
21259;DHT22;10787;53.364;-1.480;2023-04-03T09:21:25;9.00;1.00
21259;DHT22;10787;53.364;-1.480;2023-04-03T09:24:16;8.80;1.00
21259;DHT22;10787;53.364;-1.480;2023-04-03T09:27:04;8.80;1.00
21259;DHT22;10787;53.364;-1.480;2023-04-03T09:29:56;8.80;1.00
21259;DHT22;10787;53.364;-1.480;2023-04-03T09:32:40;8.80;1.00
21259;DHT22;10787;53.364;-1.480;2023-04-03T09:35:28;8.90;1.00
21259;DHT22;10787;53.364;-1.480;2023-04-03T09:38:16;8.80;1.00
21259;DHT22;10787;53.364;-1.480;2023-04-03T09:43:54;9.00;1.00
21259;DHT22;10787;53.364;-1.480;2023-04-03T09:46:38;9.20;1.00
21259;DHT22;10787;53.364;-1.480;2023-04-03T09:49:23;9.30;1.00
21259;DHT22;10787;53.364;-1.480;2023-04-03T09:52:23;9.40;1.00
21259;DHT22;10787;53.364;-1.480;2023-04-03T09:55:15;9.50;1.00
21259;DHT22;10787;53.364;-1.480;2023-04-03T09:58:02;9.60;1.00
21259;DHT22;10787;53.364;-1.480;2023-04-03T10:00:57;9.50;1.00
21259;DHT22;10787;53.364;-1.480;2023-04-03T10:03:42;9.40;1.00
21259;DHT22;10787;53.364;-1.480;2023-04-03T10:06:32;9.50;1.00
21259;DHT22;10787;53.364;-1.480;2023-04-03T10:09:31;9.70;1.00
21259;DHT22;10787;53.364;-1.480;2023-04-03T10:12:19;9.90;1.00
21259;DHT22;10787;53.364;-1.480;2023-04-03T10:15:16;9.90;1.00
21259;DHT22;10787;53.364;-1.480;2023-04-03T10:18:17;9.90;1.00
21259;DHT22;10787;53.364;-1.480;2023-04-03T10:21:20;9.70;1.00
21259;DHT22;10787;53.364;-1.480;2023-04-03T10:24:34;9.60;1.00
21259;DHT22;10787;53.364;-1.480;2023-04-03T10:34:11;9.50;1.00
21259;DHT22;10787;53.364;-1.480;2023-04-03T10:43:14;10.00;1.00
21259;DHT22;10787;53.364;-1.480;2023-04-03T10:46:06;10.20;1.00
21259;DHT22;10787;53.364;-1.480;2023-04-03T10:52:24;10.60;1.00
21259;DHT22;10787;53.364;-1.480;2023-04-03T10:57:56;10.90;1.00
21259;DHT22;10787;53.364;-1.480;2023-04-03T11:00:47;10.90;1.00
21259;DHT22;10787;53.364;-1.480;2023-04-03T11:03:36;10.90;1.00
21259;DHT22;10787;53.364;-1.480;2023-04-03T11:06:31;11.00;1.00
21259;DHT22;10787;53.364;-1.480;2023-04-03T11:09:26;11.10;1.00
21259;DHT22;10787;53.364;-1.480;2023-04-03T11:12:20;11.30;1.00
21259;DHT22;10787;53.364;-1.480;2023-04-03T11:15:11;11.60;1.00
21259;DHT22;10787;53.364;-1.480;2023-04-03T11:18:00;11.80;1.00
21259;DHT22;10787;53.364;-1.480;2023-04-03T11:24:05;11.90;1.00
21259;DHT22;10787;53.364;-1.480;2023-04-03T11:26:59;11.80;1.00
21259;DHT22;10787;53.364;-1.480;2023-04-03T11:29:45;12.00;1.00
21259;DHT22;10787;53.364;-1.480;2023-04-03T11:35:30;12.20;1.00
21259;DHT22;10787;53.364;-1.480;2023-04-03T11:38:36;12.40;1.00
21259;DHT22;10787;53.364;-1.480;2023-04-03T11:41:35;12.50;1.00
21259;DHT22;10787;53.364;-1.480;2023-04-03T11:44:30;12.60;1.00
21259;DHT22;10787;53.364;-1.480;2023-04-03T11:47:52;12.70;1.00
21259;DHT22;10787;53.364;-1.480;2023-04-03T11:50:45;13.00;1.00
21259;DHT22;10787;53.364;-1.480;2023-04-03T11:53:35;13.50;1.00
21259;DHT22;10787;53.364;-1.480;2023-04-03T12:01:56;16.30;1.00
21259;DHT22;10787;53.364;-1.480;2023-04-03T12:08:27;18.70;1.00
21259;DHT22;10787;53.364;-1.480;2023-04-03T12:16:42;19.70;1.00
21259;DHT22;10787;53.364;-1.480;2023-04-03T12:19:36;20.10;1.00
21259;DHT22;10787;53.364;-1.480;2023-04-03T12:22:24;20.00;1.00
21259;DHT22;10787;53.364;-1.480;2023-04-03T12:25:48;20.20;1.00
21259;DHT22;10787;53.364;-1.480;2023-04-03T12:28:38;20.20;1.00
21259;DHT22;10787;53.364;-1.480;2023-04-03T12:31:25;21.00;1.00
21259;DHT22;10787;53.364;-1.480;2023-04-03T12:37:48;22.00;1.00
21259;DHT22;10787;53.364;-1.480;2023-04-03T12:46:48;24.30;1.00
21259;DHT22;10787;53.364;-1.480;2023-04-03T12:49:38;24.10;1.00
21259;DHT22;10787;53.364;-1.480;2023-04-03T12:52:45;24.40;1.00
21259;DHT22;10787;53.364;-1.480;2023-04-03T12:55:32;24.70;1.00
21259;DHT22;10787;53.364;-1.480;2023-04-03T13:03:55;24.40;1.00
21259;DHT22;10787;53.364;-1.480;2023-04-03T13:06:42;24.50;1.00
21259;DHT22;10787;53.364;-1.480;2023-04-03T13:09:31;24.70;1.00
21259;DHT22;10787;53.364;-1.480;2023-04-03T13:12:16;25.00;1.00
21259;DHT22;10787;53.364;-1.480;2023-04-03T13:15:12;24.70;1.00
21259;DHT22;10787;53.364;-1.480;2023-04-03T13:17:57;25.00;1.00
21259;DHT22;10787;53.364;-1.480;2023-04-03T13:20:41;24.80;1.00
21259;DHT22;10787;53.364;-1.480;2023-04-03T13:23:25;24.70;1.00
21259;DHT22;10787;53.364;-1.480;2023-04-03T13:26:10;24.90;1.00
21259;DHT22;10787;53.364;-1.480;2023-04-03T13:29:01;25.30;1.00
21259;DHT22;10787;53.364;-1.480;2023-04-03T13:31:46;25.30;1.00
21259;DHT22;10787;53.364;-1.480;2023-04-03T13:34:42;25.60;1.00
21259;DHT22;10787;53.364;-1.480;2023-04-03T13:37:30;25.80;1.00
21259;DHT22;10787;53.364;-1.480;2023-04-03T13:40:15;25.70;1.00
21259;DHT22;10787;53.364;-1.480;2023-04-03T13:43:05;25.50;1.00
21259;DHT22;10787;53.364;-1.480;2023-04-03T13:48:56;26.80;1.00
21259;DHT22;10787;53.364;-1.480;2023-04-03T13:51:41;27.30;1.00
21259;DHT22;10787;53.364;-1.480;2023-04-03T13:54:35;27.30;1.00
21259;DHT22;10787;53.364;-1.480;2023-04-03T13:57:20;26.90;1.00
21259;DHT22;10787;53.364;-1.480;2023-04-03T14:06:06;27.50;1.00
21259;DHT22;10787;53.364;-1.480;2023-04-03T14:08:51;27.90;1.00
21259;DHT22;10787;53.364;-1.480;2023-04-03T14:11:35;27.80;1.00
21259;DHT22;10787;53.364;-1.480;2023-04-03T14:14:29;27.60;1.00
21259;DHT22;10787;53.364;-1.480;2023-04-03T14:17:21;27.90;1.00
21259;DHT22;10787;53.364;-1.480;2023-04-03T14:20:06;28.00;1.00
21259;DHT22;10787;53.364;-1.480;2023-04-03T14:22:51;28.50;1.00
21259;DHT22;10787;53.364;-1.480;2023-04-03T14:25:36;28.20;1.00
21259;DHT22;10787;53.364;-1.480;2023-04-03T14:28:22;27.00;1.00
21259;DHT22;10787;53.364;-1.480;2023-04-03T14:31:06;26.40;1.00
21259;DHT22;10787;53.364;-1.480;2023-04-03T14:34:03;26.10;1.00
21259;DHT22;10787;53.364;-1.480;2023-04-03T14:36:47;25.90;1.00
21259;DHT22;10787;53.364;-1.480;2023-04-03T14:39:31;26.40;1.00
21259;DHT22;10787;53.364;-1.480;2023-04-03T14:42:20;26.70;1.00
21259;DHT22;10787;53.364;-1.480;2023-04-03T14:45:07;27.20;1.00
21259;DHT22;10787;53.364;-1.480;2023-04-03T14:47:54;27.60;1.00
21259;DHT22;10787;53.364;-1.480;2023-04-03T14:50:39;27.90;1.00
21259;DHT22;10787;53.364;-1.480;2023-04-03T14:53:24;28.00;1.00
21259;DHT22;10787;53.364;-1.480;2023-04-03T14:59:00;28.90;1.00
21259;DHT22;10787;53.364;-1.480;2023-04-03T15:01:44;29.20;1.00
21259;DHT22;10787;53.364;-1.480;2023-04-03T15:04:29;29.00;1.00
21259;DHT22;10787;53.364;-1.480;2023-04-03T15:07:13;28.80;1.00
21259;DHT22;10787;53.364;-1.480;2023-04-03T15:09:58;28.90;1.00
21259;DHT22;10787;53.364;-1.480;2023-04-03T15:12:42;28.90;1.00
21259;DHT22;10787;53.364;-1.480;2023-04-03T15:15:29;28.50;1.00
21259;DHT22;10787;53.364;-1.480;2023-04-03T15:18:25;28.50;1.00
21259;DHT22;10787;53.364;-1.480;2023-04-03T15:21:10;28.70;1.00
21259;DHT22;10787;53.364;-1.480;2023-04-03T15:23:54;28.60;1.00
21259;DHT22;10787;53.364;-1.480;2023-04-03T15:26:38;27.70;1.00
21259;DHT22;10787;53.364;-1.480;2023-04-03T15:29:23;27.60;1.00
21259;DHT22;10787;53.364;-1.480;2023-04-03T15:32:08;27.70;1.00
21259;DHT22;10787;53.364;-1.480;2023-04-03T15:34:54;26.90;1.00
21259;DHT22;10787;53.364;-1.480;2023-04-03T15:37:38;27.40;1.00
21259;DHT22;10787;53.364;-1.480;2023-04-03T15:40:22;27.70;1.00
21259;DHT22;10787;53.364;-1.480;2023-04-03T15:43:07;27.90;1.00
21259;DHT22;10787;53.364;-1.480;2023-04-03T15:45:51;28.10;1.00
21259;DHT22;10787;53.364;-1.480;2023-04-03T15:48:36;28.30;1.00
21259;DHT22;10787;53.364;-1.480;2023-04-03T15:51:20;28.30;1.00
21259;DHT22;10787;53.364;-1.480;2023-04-03T15:54:05;28.10;1.00
21259;DHT22;10787;53.364;-1.480;2023-04-03T15:56:50;28.00;1.00
21259;DHT22;10787;53.364;-1.480;2023-04-03T15:59:34;28.00;1.00
21259;DHT22;10787;53.364;-1.480;2023-04-03T16:02:18;28.00;1.00
21259;DHT22;10787;53.364;-1.480;2023-04-03T16:05:04;28.20;1.00
21259;DHT22;10787;53.364;-1.480;2023-04-03T16:07:48;28.00;1.00
21259;DHT22;10787;53.364;-1.480;2023-04-03T16:10:32;27.90;1.00
21259;DHT22;10787;53.364;-1.480;2023-04-03T16:13:17;27.90;1.00
21259;DHT22;10787;53.364;-1.480;2023-04-03T16:16:02;28.10;1.00
21259;DHT22;10787;53.364;-1.480;2023-04-03T16:18:48;28.10;1.00
21259;DHT22;10787;53.364;-1.480;2023-04-03T16:21:33;27.90;1.00
21259;DHT22;10787;53.364;-1.480;2023-04-03T16:24:17;28.10;1.00
21259;DHT22;10787;53.364;-1.480;2023-04-03T16:27:01;27.90;1.00
21259;DHT22;10787;53.364;-1.480;2023-04-03T16:29:45;27.60;1.00
21259;DHT22;10787;53.364;-1.480;2023-04-03T16:32:30;27.30;1.00
21259;DHT22;10787;53.364;-1.480;2023-04-03T16:35:15;27.10;1.00
21259;DHT22;10787;53.364;-1.480;2023-04-03T16:38:00;26.90;1.00
21259;DHT22;10787;53.364;-1.480;2023-04-03T16:40:45;26.90;1.00
21259;DHT22;10787;53.364;-1.480;2023-04-03T16:43:30;26.60;1.00
21259;DHT22;10787;53.364;-1.480;2023-04-03T16:46:15;26.40;1.00
21259;DHT22;10787;53.364;-1.480;2023-04-03T16:48:59;26.40;1.00
21259;DHT22;10787;53.364;-1.480;2023-04-03T16:51:43;26.30;1.00
21259;DHT22;10787;53.364;-1.480;2023-04-03T16:54:28;25.90;1.00
21259;DHT22;10787;53.364;-1.480;2023-04-03T16:57:13;25.20;1.00
21259;DHT22;10787;53.364;-1.480;2023-04-03T16:59:57;24.60;1.00
21259;DHT22;10787;53.364;-1.480;2023-04-03T17:02:42;24.00;1.00
21259;DHT22;10787;53.364;-1.480;2023-04-03T17:05:26;23.50;1.00
21259;DHT22;10787;53.364;-1.480;2023-04-03T17:08:11;22.80;1.00
21259;DHT22;10787;53.364;-1.480;2023-04-03T17:10:55;22.10;1.00
21259;DHT22;10787;53.364;-1.480;2023-04-03T17:13:39;21.80;1.00
21259;DHT22;10787;53.364;-1.480;2023-04-03T17:16:24;21.40;1.00
21259;DHT22;10787;53.364;-1.480;2023-04-03T17:19:09;21.00;1.00
21259;DHT22;10787;53.364;-1.480;2023-04-03T17:21:56;20.60;1.00
21259;DHT22;10787;53.364;-1.480;2023-04-03T17:24:41;20.00;1.00
21259;DHT22;10787;53.364;-1.480;2023-04-03T17:27:25;19.70;1.00
21259;DHT22;10787;53.364;-1.480;2023-04-03T17:30:10;19.40;1.00
21259;DHT22;10787;53.364;-1.480;2023-04-03T17:32:54;18.70;1.00
21259;DHT22;10787;53.364;-1.480;2023-04-03T17:35:39;18.20;1.00
21259;DHT22;10787;53.364;-1.480;2023-04-03T17:38:24;17.50;1.00
21259;DHT22;10787;53.364;-1.480;2023-04-03T17:41:08;16.90;1.00
21259;DHT22;10787;53.364;-1.480;2023-04-03T17:43:53;16.30;1.00
21259;DHT22;10787;53.364;-1.480;2023-04-03T17:46:39;15.90;1.00
21259;DHT22;10787;53.364;-1.480;2023-04-03T17:49:24;15.40;1.00
21259;DHT22;10787;53.364;-1.480;2023-04-03T17:52:09;15.00;1.00
21259;DHT22;10787;53.364;-1.480;2023-04-03T17:54:53;14.60;1.00
21259;DHT22;10787;53.364;-1.480;2023-04-03T17:57:38;14.40;1.00
21259;DHT22;10787;53.364;-1.480;2023-04-03T18:00:22;14.20;1.00
21259;DHT22;10787;53.364;-1.480;2023-04-03T18:03:07;14.00;1.00
21259;DHT22;10787;53.364;-1.480;2023-04-03T18:05:52;13.80;1.00
21259;DHT22;10787;53.364;-1.480;2023-04-03T18:08:42;13.80;1.00
21259;DHT22;10787;53.364;-1.480;2023-04-03T18:11:27;13.60;1.00
21259;DHT22;10787;53.364;-1.480;2023-04-03T18:14:13;13.40;1.00
21259;DHT22;10787;53.364;-1.480;2023-04-03T18:16:59;13.30;1.00
21259;DHT22;10787;53.364;-1.480;2023-04-03T18:19:43;13.20;1.00
21259;DHT22;10787;53.364;-1.480;2023-04-03T18:22:28;13.10;1.00
21259;DHT22;10787;53.364;-1.480;2023-04-03T18:25:12;12.90;1.00
21259;DHT22;10787;53.364;-1.480;2023-04-03T18:27:57;12.80;1.00
21259;DHT22;10787;53.364;-1.480;2023-04-03T18:30:43;12.60;1.00
21259;DHT22;10787;53.364;-1.480;2023-04-03T18:33:27;12.50;1.00
21259;DHT22;10787;53.364;-1.480;2023-04-03T18:36:11;12.30;1.00
21259;DHT22;10787;53.364;-1.480;2023-04-03T18:38:56;12.20;1.00
21259;DHT22;10787;53.364;-1.480;2023-04-03T18:41:40;12.10;1.00
21259;DHT22;10787;53.364;-1.480;2023-04-03T18:44:25;11.90;1.00
21259;DHT22;10787;53.364;-1.480;2023-04-03T18:47:11;11.80;1.00
21259;DHT22;10787;53.364;-1.480;2023-04-03T18:49:56;11.70;1.00
21259;DHT22;10787;53.364;-1.480;2023-04-03T18:52:41;11.60;1.00
21259;DHT22;10787;53.364;-1.480;2023-04-03T18:55:25;11.50;1.00
21259;DHT22;10787;53.364;-1.480;2023-04-03T18:58:09;11.40;1.00
21259;DHT22;10787;53.364;-1.480;2023-04-03T19:00:54;11.40;1.00
21259;DHT22;10787;53.364;-1.480;2023-04-03T19:03:39;11.30;1.00
21259;DHT22;10787;53.364;-1.480;2023-04-03T19:06:24;11.20;1.00
21259;DHT22;10787;53.364;-1.480;2023-04-03T19:09:08;11.20;1.00